sensor_id;sensor_type;location;lat;lon;timestamp;temperature;humidity
67141;DHT22;54058;52.010;5.546;2023-03-14T00:01:22;12.30;85.20
67141;DHT22;54058;52.010;5.546;2023-03-14T00:03:49;12.30;84.60
67141;DHT22;54058;52.010;5.546;2023-03-14T00:06:15;12.30;84.40
67141;DHT22;54058;52.010;5.546;2023-03-14T00:08:42;12.30;83.90
67141;DHT22;54058;52.010;5.546;2023-03-14T00:11:11;12.30;84.10
67141;DHT22;54058;52.010;5.546;2023-03-14T00:13:37;12.20;84.00
67141;DHT22;54058;52.010;5.546;2023-03-14T00:16:08;12.20;83.70
67141;DHT22;54058;52.010;5.546;2023-03-14T00:18:34;12.20;83.50
67141;DHT22;54058;52.010;5.546;2023-03-14T00:21:01;12.20;83.60
67141;DHT22;54058;52.010;5.546;2023-03-14T00:23:28;12.20;83.50
67141;DHT22;54058;52.010;5.546;2023-03-14T00:26:02;12.10;79.20
67141;DHT22;54058;52.010;5.546;2023-03-14T00:28:28;12.10;83.10
67141;DHT22;54058;52.010;5.546;2023-03-14T00:30:54;12.10;83.40
67141;DHT22;54058;52.010;5.546;2023-03-14T00:33:20;12.10;83.00
67141;DHT22;54058;52.010;5.546;2023-03-14T00:36:13;12.10;83.30
67141;DHT22;54058;52.010;5.546;2023-03-14T00:38:40;12.00;82.60
67141;DHT22;54058;52.010;5.546;2023-03-14T00:41:08;12.00;83.30
67141;DHT22;54058;52.010;5.546;2023-03-14T00:43:34;12.00;83.40
67141;DHT22;54058;52.010;5.546;2023-03-14T00:46:00;12.00;83.30
67141;DHT22;54058;52.010;5.546;2023-03-14T00:48:26;12.00;83.20
67141;DHT22;54058;52.010;5.546;2023-03-14T00:50:52;12.00;83.90
67141;DHT22;54058;52.010;5.546;2023-03-14T00:53:17;12.00;83.40
67141;DHT22;54058;52.010;5.546;2023-03-14T00:55:44;12.00;82.90
67141;DHT22;54058;52.010;5.546;2023-03-14T00:58:11;12.00;83.50
67141;DHT22;54058;52.010;5.546;2023-03-14T01:00:37;12.00;83.50
67141;DHT22;54058;52.010;5.546;2023-03-14T01:03:03;11.90;83.30
67141;DHT22;54058;52.010;5.546;2023-03-14T01:05:29;11.90;84.00
67141;DHT22;54058;52.010;5.546;2023-03-14T01:07:55;11.90;83.50
67141;DHT22;54058;52.010;5.546;2023-03-14T01:10:21;11.90;83.60
67141;DHT22;54058;52.010;5.546;2023-03-14T01:12:46;11.80;83.80
67141;DHT22;54058;52.010;5.546;2023-03-14T01:15:12;11.80;83.70
67141;DHT22;54058;52.010;5.546;2023-03-14T01:17:38;11.80;83.70
67141;DHT22;54058;52.010;5.546;2023-03-14T01:20:05;11.70;84.00
67141;DHT22;54058;52.010;5.546;2023-03-14T01:22:34;11.70;83.80
67141;DHT22;54058;52.010;5.546;2023-03-14T01:25:00;11.70;84.40
67141;DHT22;54058;52.010;5.546;2023-03-14T01:27:26;11.60;84.90
67141;DHT22;54058;52.010;5.546;2023-03-14T01:29:51;11.50;85.40
67141;DHT22;54058;52.010;5.546;2023-03-14T01:32:17;11.40;86.60
67141;DHT22;54058;52.010;5.546;2023-03-14T01:34:43;11.30;86.50
67141;DHT22;54058;52.010;5.546;2023-03-14T01:37:08;11.20;86.80
67141;DHT22;54058;52.010;5.546;2023-03-14T01:39:34;11.20;86.90
67141;DHT22;54058;52.010;5.546;2023-03-14T01:42:00;11.10;87.60
67141;DHT22;54058;52.010;5.546;2023-03-14T01:44:26;10.90;88.60
67141;DHT22;54058;52.010;5.546;2023-03-14T01:46:52;10.90;89.00
67141;DHT22;54058;52.010;5.546;2023-03-14T01:49:28;10.80;88.90
67141;DHT22;54058;52.010;5.546;2023-03-14T01:52:07;10.80;89.00
67141;DHT22;54058;52.010;5.546;2023-03-14T01:54:39;10.70;89.80
67141;DHT22;54058;52.010;5.546;2023-03-14T01:57:19;10.70;89.60
67141;DHT22;54058;52.010;5.546;2023-03-14T01:59:51;10.70;88.90
67141;DHT22;54058;52.010;5.546;2023-03-14T02:02:18;10.60;89.10
67141;DHT22;54058;52.010;5.546;2023-03-14T02:04:45;10.70;88.90
67141;DHT22;54058;52.010;5.546;2023-03-14T02:07:18;10.70;89.20
67141;DHT22;54058;52.010;5.546;2023-03-14T02:09:45;10.60;88.90
67141;DHT22;54058;52.010;5.546;2023-03-14T02:12:14;10.60;89.10
67141;DHT22;54058;52.010;5.546;2023-03-14T02:14:41;10.60;88.90
67141;DHT22;54058;52.010;5.546;2023-03-14T02:17:12;10.60;88.90
67141;DHT22;54058;52.010;5.546;2023-03-14T02:22:15;10.50;89.20
67141;DHT22;54058;52.010;5.546;2023-03-14T02:25:03;10.50;89.20
67141;DHT22;54058;52.010;5.546;2023-03-14T02:27:29;10.50;89.30
67141;DHT22;54058;52.010;5.546;2023-03-14T02:29:58;10.50;89.10
67141;DHT22;54058;52.010;5.546;2023-03-14T02:32:26;10.60;89.20
67141;DHT22;54058;52.010;5.546;2023-03-14T02:34:54;10.60;89.20
67141;DHT22;54058;52.010;5.546;2023-03-14T02:37:21;10.60;90.40
67141;DHT22;54058;52.010;5.546;2023-03-14T02:39:48;10.60;89.20
67141;DHT22;54058;52.010;5.546;2023-03-14T02:42:15;10.60;89.10
67141;DHT22;54058;52.010;5.546;2023-03-14T02:45:25;10.60;89.00
67141;DHT22;54058;52.010;5.546;2023-03-14T02:47:47;10.60;89.00
67141;DHT22;54058;52.010;5.546;2023-03-14T02:50:18;10.60;88.90
67141;DHT22;54058;52.010;5.546;2023-03-14T02:52:45;10.60;88.90
67141;DHT22;54058;52.010;5.546;2023-03-14T02:55:11;10.60;88.90
67141;DHT22;54058;52.010;5.546;2023-03-14T02:57:36;10.60;88.90
67141;DHT22;54058;52.010;5.546;2023-03-14T03:00:03;10.70;89.10
67141;DHT22;54058;52.010;5.546;2023-03-14T03:02:32;10.70;89.10
67141;DHT22;54058;52.010;5.546;2023-03-14T03:04:58;10.60;89.60
67141;DHT22;54058;52.010;5.546;2023-03-14T03:07:24;10.60;89.10
67141;DHT22;54058;52.010;5.546;2023-03-14T03:09:50;10.70;89.20
67141;DHT22;54058;52.010;5.546;2023-03-14T03:12:15;10.60;89.10
67141;DHT22;54058;52.010;5.546;2023-03-14T03:14:41;10.60;89.20
67141;DHT22;54058;52.010;5.546;2023-03-14T03:17:07;10.60;89.40
67141;DHT22;54058;52.010;5.546;2023-03-14T03:19:33;10.60;89.60
67141;DHT22;54058;52.010;5.546;2023-03-14T03:21:59;10.60;89.50
67141;DHT22;54058;52.010;5.546;2023-03-14T03:24:25;10.50;89.70
67141;DHT22;54058;52.010;5.546;2023-03-14T03:26:51;10.50;89.90
67141;DHT22;54058;52.010;5.546;2023-03-14T03:29:16;10.50;90.00
67141;DHT22;54058;52.010;5.546;2023-03-14T03:31:42;10.50;90.00
67141;DHT22;54058;52.010;5.546;2023-03-14T03:34:11;10.50;90.00
67141;DHT22;54058;52.010;5.546;2023-03-14T03:36:36;10.50;90.00
67141;DHT22;54058;52.010;5.546;2023-03-14T03:39:02;10.50;90.00
67141;DHT22;54058;52.010;5.546;2023-03-14T03:41:29;10.50;90.10
67141;DHT22;54058;52.010;5.546;2023-03-14T03:43:55;10.60;90.10
67141;DHT22;54058;52.010;5.546;2023-03-14T03:46:21;10.60;90.00
67141;DHT22;54058;52.010;5.546;2023-03-14T03:48:47;10.60;90.00
67141;DHT22;54058;52.010;5.546;2023-03-14T03:51:14;10.60;89.90
67141;DHT22;54058;52.010;5.546;2023-03-14T03:53:40;10.60;89.90
67141;DHT22;54058;52.010;5.546;2023-03-14T03:56:06;10.60;90.40
67141;DHT22;54058;52.010;5.546;2023-03-14T03:58:32;10.60;89.90
67141;DHT22;54058;52.010;5.546;2023-03-14T04:00:58;10.60;89.80
67141;DHT22;54058;52.010;5.546;2023-03-14T04:03:23;10.60;89.80
67141;DHT22;54058;52.010;5.546;2023-03-14T04:06:04;10.60;89.90
67141;DHT22;54058;52.010;5.546;2023-03-14T04:08:30;10.60;90.00
67141;DHT22;54058;52.010;5.546;2023-03-14T04:10:57;10.60;89.90
67141;DHT22;54058;52.010;5.546;2023-03-14T04:13:24;10.60;89.90
67141;DHT22;54058;52.010;5.546;2023-03-14T04:15:51;10.60;89.90
67141;DHT22;54058;52.010;5.546;2023-03-14T04:18:17;10.60;89.90
67141;DHT22;54058;52.010;5.546;2023-03-14T04:20:42;10.60;89.80
67141;DHT22;54058;52.010;5.546;2023-03-14T04:23:08;10.60;89.90
67141;DHT22;54058;52.010;5.546;2023-03-14T04:25:34;10.60;89.90
67141;DHT22;54058;52.010;5.546;2023-03-14T04:27:59;10.60;89.90
67141;DHT22;54058;52.010;5.546;2023-03-14T04:30:25;10.60;89.90
67141;DHT22;54058;52.010;5.546;2023-03-14T04:32:50;10.60;90.10
67141;DHT22;54058;52.010;5.546;2023-03-14T04:35:16;10.60;89.80
67141;DHT22;54058;52.010;5.546;2023-03-14T04:37:42;10.60;89.90
67141;DHT22;54058;52.010;5.546;2023-03-14T04:40:09;10.60;90.00
67141;DHT22;54058;52.010;5.546;2023-03-14T04:42:35;10.60;89.90
67141;DHT22;54058;52.010;5.546;2023-03-14T04:45:01;10.60;89.90
67141;DHT22;54058;52.010;5.546;2023-03-14T04:47:27;10.60;89.90
67141;DHT22;54058;52.010;5.546;2023-03-14T04:49:53;10.60;90.10
67141;DHT22;54058;52.010;5.546;2023-03-14T04:52:18;10.60;89.90
67141;DHT22;54058;52.010;5.546;2023-03-14T04:54:44;10.60;89.90
67141;DHT22;54058;52.010;5.546;2023-03-14T04:57:10;10.60;90.00
67141;DHT22;54058;52.010;5.546;2023-03-14T04:59:35;10.60;90.00
67141;DHT22;54058;52.010;5.546;2023-03-14T05:02:01;10.60;90.00
67141;DHT22;54058;52.010;5.546;2023-03-14T05:04:27;10.60;90.00
67141;DHT22;54058;52.010;5.546;2023-03-14T05:06:52;10.60;89.90
67141;DHT22;54058;52.010;5.546;2023-03-14T05:09:18;10.60;90.00
67141;DHT22;54058;52.010;5.546;2023-03-14T05:11:43;10.60;89.90
67141;DHT22;54058;52.010;5.546;2023-03-14T05:14:09;10.60;89.90
67141;DHT22;54058;52.010;5.546;2023-03-14T05:16:35;10.60;89.90
67141;DHT22;54058;52.010;5.546;2023-03-14T05:19:00;10.70;90.00
67141;DHT22;54058;52.010;5.546;2023-03-14T05:21:27;10.60;90.00
67141;DHT22;54058;52.010;5.546;2023-03-14T05:23:52;10.60;90.00
67141;DHT22;54058;52.010;5.546;2023-03-14T05:26:18;10.60;90.00
67141;DHT22;54058;52.010;5.546;2023-03-14T05:28:44;10.60;90.00
67141;DHT22;54058;52.010;5.546;2023-03-14T05:31:10;10.60;90.00
67141;DHT22;54058;52.010;5.546;2023-03-14T05:33:36;10.70;90.10
67141;DHT22;54058;52.010;5.546;2023-03-14T05:36:01;10.60;90.10
67141;DHT22;54058;52.010;5.546;2023-03-14T05:38:27;10.60;90.10
67141;DHT22;54058;52.010;5.546;2023-03-14T05:40:52;10.70;90.10
67141;DHT22;54058;52.010;5.546;2023-03-14T05:43:18;10.60;90.20
67141;DHT22;54058;52.010;5.546;2023-03-14T05:45:44;10.60;90.20
67141;DHT22;54058;52.010;5.546;2023-03-14T05:48:10;10.60;90.20
67141;DHT22;54058;52.010;5.546;2023-03-14T05:50:35;10.60;90.30
67141;DHT22;54058;52.010;5.546;2023-03-14T05:53:01;10.60;90.30
67141;DHT22;54058;52.010;5.546;2023-03-14T05:55:27;10.60;90.30
67141;DHT22;54058;52.010;5.546;2023-03-14T05:57:54;10.60;90.30
67141;DHT22;54058;52.010;5.546;2023-03-14T06:00:20;10.60;90.30
67141;DHT22;54058;52.010;5.546;2023-03-14T06:02:46;10.60;90.40
67141;DHT22;54058;52.010;5.546;2023-03-14T06:05:12;10.60;90.50
67141;DHT22;54058;52.010;5.546;2023-03-14T06:07:37;10.50;90.50
67141;DHT22;54058;52.010;5.546;2023-03-14T06:10:03;10.60;90.50
67141;DHT22;54058;52.010;5.546;2023-03-14T06:12:29;10.50;90.50
67141;DHT22;54058;52.010;5.546;2023-03-14T06:14:55;10.50;90.50
67141;DHT22;54058;52.010;5.546;2023-03-14T06:17:20;10.50;90.60
67141;DHT22;54058;52.010;5.546;2023-03-14T06:19:46;10.50;90.60
67141;DHT22;54058;52.010;5.546;2023-03-14T06:22:12;10.50;90.60
67141;DHT22;54058;52.010;5.546;2023-03-14T06:24:37;10.60;90.70
67141;DHT22;54058;52.010;5.546;2023-03-14T06:27:03;10.50;90.70
67141;DHT22;54058;52.010;5.546;2023-03-14T06:29:29;10.50;90.60
67141;DHT22;54058;52.010;5.546;2023-03-14T06:31:55;10.50;90.70
67141;DHT22;54058;52.010;5.546;2023-03-14T06:34:21;10.60;90.70
67141;DHT22;54058;52.010;5.546;2023-03-14T06:36:46;10.50;90.70
67141;DHT22;54058;52.010;5.546;2023-03-14T06:39:12;10.60;90.80
67141;DHT22;54058;52.010;5.546;2023-03-14T06:41:38;10.60;90.80
67141;DHT22;54058;52.010;5.546;2023-03-14T06:44:03;10.60;90.80
67141;DHT22;54058;52.010;5.546;2023-03-14T06:46:29;10.60;90.80
67141;DHT22;54058;52.010;5.546;2023-03-14T06:48:55;10.60;90.90
67141;DHT22;54058;52.010;5.546;2023-03-14T06:51:20;10.60;90.80
67141;DHT22;54058;52.010;5.546;2023-03-14T06:53:46;10.60;90.80
67141;DHT22;54058;52.010;5.546;2023-03-14T06:56:12;10.60;91.00
67141;DHT22;54058;52.010;5.546;2023-03-14T06:58:37;10.60;91.00
67141;DHT22;54058;52.010;5.546;2023-03-14T07:01:03;10.60;91.20
67141;DHT22;54058;52.010;5.546;2023-03-14T07:03:29;10.50;91.20
67141;DHT22;54058;52.010;5.546;2023-03-14T07:05:54;10.40;91.20
67141;DHT22;54058;52.010;5.546;2023-03-14T07:08:20;10.30;91.40
67141;DHT22;54058;52.010;5.546;2023-03-14T07:10:46;10.20;91.30
67141;DHT22;54058;52.010;5.546;2023-03-14T07:13:12;10.10;91.40
67141;DHT22;54058;52.010;5.546;2023-03-14T07:15:37;10.00;91.30
67141;DHT22;54058;52.010;5.546;2023-03-14T07:18:03;9.90;91.30
67141;DHT22;54058;52.010;5.546;2023-03-14T07:20:29;9.70;91.30
67141;DHT22;54058;52.010;5.546;2023-03-14T07:22:57;9.60;91.30
67141;DHT22;54058;52.010;5.546;2023-03-14T07:25:25;9.50;91.40
67141;DHT22;54058;52.010;5.546;2023-03-14T07:27:50;9.40;91.50
67141;DHT22;54058;52.010;5.546;2023-03-14T07:30:16;9.30;91.60
67141;DHT22;54058;52.010;5.546;2023-03-14T07:32:42;9.30;91.60
67141;DHT22;54058;52.010;5.546;2023-03-14T07:35:08;9.30;91.60
67141;DHT22;54058;52.010;5.546;2023-03-14T07:37:34;9.30;91.60
67141;DHT22;54058;52.010;5.546;2023-03-14T07:39:59;9.30;91.60
67141;DHT22;54058;52.010;5.546;2023-03-14T07:42:25;9.30;91.70
67141;DHT22;54058;52.010;5.546;2023-03-14T07:44:51;9.30;91.60
67141;DHT22;54058;52.010;5.546;2023-03-14T07:47:16;9.30;91.60
67141;DHT22;54058;52.010;5.546;2023-03-14T07:49:42;9.20;91.60
67141;DHT22;54058;52.010;5.546;2023-03-14T07:52:08;9.20;91.60
67141;DHT22;54058;52.010;5.546;2023-03-14T07:54:33;9.20;91.60
67141;DHT22;54058;52.010;5.546;2023-03-14T07:56:59;9.20;91.60
67141;DHT22;54058;52.010;5.546;2023-03-14T07:59:26;9.10;91.80
67141;DHT22;54058;52.010;5.546;2023-03-14T08:01:52;9.10;91.80
67141;DHT22;54058;52.010;5.546;2023-03-14T08:04:18;9.10;92.10
67141;DHT22;54058;52.010;5.546;2023-03-14T08:06:43;9.10;91.90
67141;DHT22;54058;52.010;5.546;2023-03-14T08:09:09;9.10;91.80
67141;DHT22;54058;52.010;5.546;2023-03-14T08:11:35;9.10;91.80
67141;DHT22;54058;52.010;5.546;2023-03-14T08:14:01;9.00;91.90
67141;DHT22;54058;52.010;5.546;2023-03-14T08:16:27;9.00;91.80
67141;DHT22;54058;52.010;5.546;2023-03-14T08:18:52;9.00;91.70
67141;DHT22;54058;52.010;5.546;2023-03-14T08:21:18;9.00;91.90
67141;DHT22;54058;52.010;5.546;2023-03-14T08:23:44;9.10;91.90
67141;DHT22;54058;52.010;5.546;2023-03-14T08:26:09;9.00;91.80
67141;DHT22;54058;52.010;5.546;2023-03-14T08:28:35;8.90;91.50
67141;DHT22;54058;52.010;5.546;2023-03-14T08:31:01;8.60;91.40
67141;DHT22;54058;52.010;5.546;2023-03-14T08:33:28;8.20;91.60
67141;DHT22;54058;52.010;5.546;2023-03-14T08:35:57;7.90;91.70
67141;DHT22;54058;52.010;5.546;2023-03-14T08:38:23;7.80;92.00
67141;DHT22;54058;52.010;5.546;2023-03-14T08:40:49;7.60;92.10
67141;DHT22;54058;52.010;5.546;2023-03-14T08:43:15;7.60;92.10
67141;DHT22;54058;52.010;5.546;2023-03-14T08:45:41;7.60;92.40
67141;DHT22;54058;52.010;5.546;2023-03-14T08:48:06;7.40;92.20
67141;DHT22;54058;52.010;5.546;2023-03-14T08:50:33;7.30;92.00
67141;DHT22;54058;52.010;5.546;2023-03-14T08:52:58;7.20;91.90
67141;DHT22;54058;52.010;5.546;2023-03-14T08:55:25;7.20;92.10
67141;DHT22;54058;52.010;5.546;2023-03-14T08:57:52;7.10;92.10
67141;DHT22;54058;52.010;5.546;2023-03-14T09:00:19;7.20;92.00
67141;DHT22;54058;52.010;5.546;2023-03-14T09:02:45;7.30;91.70
67141;DHT22;54058;52.010;5.546;2023-03-14T09:05:11;7.30;91.60
67141;DHT22;54058;52.010;5.546;2023-03-14T09:07:37;7.30;91.60
67141;DHT22;54058;52.010;5.546;2023-03-14T09:10:03;7.40;91.60
67141;DHT22;54058;52.010;5.546;2023-03-14T09:12:29;7.60;91.50
67141;DHT22;54058;52.010;5.546;2023-03-14T09:14:56;7.60;91.30
67141;DHT22;54058;52.010;5.546;2023-03-14T09:17:21;7.70;91.30
67141;DHT22;54058;52.010;5.546;2023-03-14T09:19:47;7.60;90.80
67141;DHT22;54058;52.010;5.546;2023-03-14T09:22:12;7.60;90.70
67141;DHT22;54058;52.010;5.546;2023-03-14T09:24:40;7.70;90.30
67141;DHT22;54058;52.010;5.546;2023-03-14T09:27:05;7.80;90.50
67141;DHT22;54058;52.010;5.546;2023-03-14T09:29:31;7.80;89.20
67141;DHT22;54058;52.010;5.546;2023-03-14T09:31:58;7.80;89.30
67141;DHT22;54058;52.010;5.546;2023-03-14T09:34:24;7.70;88.80
67141;DHT22;54058;52.010;5.546;2023-03-14T09:36:50;7.70;89.10
67141;DHT22;54058;52.010;5.546;2023-03-14T09:39:15;7.70;89.70
67141;DHT22;54058;52.010;5.546;2023-03-14T09:41:48;7.70;89.90
67141;DHT22;54058;52.010;5.546;2023-03-14T09:44:37;7.90;89.20
67141;DHT22;54058;52.010;5.546;2023-03-14T09:47:06;8.00;89.30
67141;DHT22;54058;52.010;5.546;2023-03-14T09:49:42;8.10;89.20
67141;DHT22;54058;52.010;5.546;2023-03-14T09:52:21;8.10;87.80
67141;DHT22;54058;52.010;5.546;2023-03-14T09:55:13;8.20;88.40
67141;DHT22;54058;52.010;5.546;2023-03-14T09:57:39;8.30;87.60
67141;DHT22;54058;52.010;5.546;2023-03-14T10:00:27;8.30;87.50
67141;DHT22;54058;52.010;5.546;2023-03-14T10:03:01;8.30;86.10
67141;DHT22;54058;52.010;5.546;2023-03-14T10:05:30;8.20;86.20
67141;DHT22;54058;52.010;5.546;2023-03-14T10:07:55;8.20;86.40
67141;DHT22;54058;52.010;5.546;2023-03-14T10:10:23;8.10;86.30
67141;DHT22;54058;52.010;5.546;2023-03-14T10:13:18;8.10;85.80
67141;DHT22;54058;52.010;5.546;2023-03-14T10:16:04;8.20;86.30
67141;DHT22;54058;52.010;5.546;2023-03-14T10:18:32;8.20;85.80
67141;DHT22;54058;52.010;5.546;2023-03-14T10:21:38;8.30;87.20
67141;DHT22;54058;52.010;5.546;2023-03-14T10:24:28;8.30;84.30
67141;DHT22;54058;52.010;5.546;2023-03-14T10:27:05;8.30;86.10
67141;DHT22;54058;52.010;5.546;2023-03-14T10:29:34;8.40;86.00
67141;DHT22;54058;52.010;5.546;2023-03-14T10:32:19;8.50;83.70
67141;DHT22;54058;52.010;5.546;2023-03-14T10:37:58;8.70;83.10
67141;DHT22;54058;52.010;5.546;2023-03-14T10:40:31;8.50;86.10
67141;DHT22;54058;52.010;5.546;2023-03-14T10:42:59;8.40;87.60
67141;DHT22;54058;52.010;5.546;2023-03-14T10:45:38;8.20;88.40
67141;DHT22;54058;52.010;5.546;2023-03-14T10:48:36;7.90;86.60
67141;DHT22;54058;52.010;5.546;2023-03-14T10:53:42;7.70;86.70
67141;DHT22;54058;52.010;5.546;2023-03-14T10:56:18;7.70;87.60
67141;DHT22;54058;52.010;5.546;2023-03-14T10:58:49;7.90;87.30
67141;DHT22;54058;52.010;5.546;2023-03-14T11:06:52;8.20;87.20
67141;DHT22;54058;52.010;5.546;2023-03-14T11:15:27;8.20;84.40
67141;DHT22;54058;52.010;5.546;2023-03-14T11:18:05;8.10;82.80
67141;DHT22;54058;52.010;5.546;2023-03-14T11:23:21;8.00;79.70
67141;DHT22;54058;52.010;5.546;2023-03-14T11:28:37;7.90;79.40
67141;DHT22;54058;52.010;5.546;2023-03-14T11:31:16;7.90;82.60
67141;DHT22;54058;52.010;5.546;2023-03-14T11:34:01;8.10;82.90
67141;DHT22;54058;52.010;5.546;2023-03-14T11:36:36;8.20;79.80
67141;DHT22;54058;52.010;5.546;2023-03-14T11:39:03;8.10;78.70
67141;DHT22;54058;52.010;5.546;2023-03-14T11:41:45;8.10;80.50
67141;DHT22;54058;52.010;5.546;2023-03-14T11:44:21;8.20;80.80
67141;DHT22;54058;52.010;5.546;2023-03-14T11:52:00;8.80;78.40
67141;DHT22;54058;52.010;5.546;2023-03-14T11:57:19;9.10;74.50
67141;DHT22;54058;52.010;5.546;2023-03-14T12:02:35;9.10;76.20
67141;DHT22;54058;52.010;5.546;2023-03-14T12:08:22;9.00;73.50
67141;DHT22;54058;52.010;5.546;2023-03-14T12:10:58;9.00;74.20
67141;DHT22;54058;52.010;5.546;2023-03-14T12:13:29;9.00;71.10
67141;DHT22;54058;52.010;5.546;2023-03-14T12:16:00;8.90;74.00
67141;DHT22;54058;52.010;5.546;2023-03-14T12:18:30;8.90;73.50
67141;DHT22;54058;52.010;5.546;2023-03-14T12:20:58;8.70;68.70
67141;DHT22;54058;52.010;5.546;2023-03-14T12:23:26;8.70;73.20
67141;DHT22;54058;52.010;5.546;2023-03-14T12:26:08;8.80;72.60
67141;DHT22;54058;52.010;5.546;2023-03-14T12:28:42;8.70;61.40
67141;DHT22;54058;52.010;5.546;2023-03-14T12:42:17;8.90;71.30
67141;DHT22;54058;52.010;5.546;2023-03-14T12:44:47;9.00;71.60
67141;DHT22;54058;52.010;5.546;2023-03-14T12:49:42;9.30;71.50
67141;DHT22;54058;52.010;5.546;2023-03-14T12:52:19;9.20;70.90
67141;DHT22;54058;52.010;5.546;2023-03-14T12:57:45;9.20;72.50
67141;DHT22;54058;52.010;5.546;2023-03-14T13:00:20;9.30;69.80
67141;DHT22;54058;52.010;5.546;2023-03-14T13:02:48;9.30;70.90
67141;DHT22;54058;52.010;5.546;2023-03-14T13:10:22;9.40;72.10
67141;DHT22;54058;52.010;5.546;2023-03-14T13:13:21;9.50;72.90
67141;DHT22;54058;52.010;5.546;2023-03-14T13:15:42;9.50;69.10
67141;DHT22;54058;52.010;5.546;2023-03-14T13:18:15;9.60;69.40
67141;DHT22;54058;52.010;5.546;2023-03-14T13:21:03;9.70;71.30
67141;DHT22;54058;52.010;5.546;2023-03-14T13:23:33;9.70;69.40
67141;DHT22;54058;52.010;5.546;2023-03-14T13:26:00;9.70;69.80
67141;DHT22;54058;52.010;5.546;2023-03-14T13:28:27;9.70;71.10
67141;DHT22;54058;52.010;5.546;2023-03-14T13:30:57;9.70;70.50
67141;DHT22;54058;52.010;5.546;2023-03-14T13:33:23;9.60;71.00
67141;DHT22;54058;52.010;5.546;2023-03-14T13:35:56;9.50;65.40
67141;DHT22;54058;52.010;5.546;2023-03-14T13:38:24;9.30;66.90
67141;DHT22;54058;52.010;5.546;2023-03-14T13:40:53;9.20;70.30
67141;DHT22;54058;52.010;5.546;2023-03-14T13:46:21;9.30;66.90
67141;DHT22;54058;52.010;5.546;2023-03-14T13:48:57;9.40;66.40
67141;DHT22;54058;52.010;5.546;2023-03-14T13:51:24;9.40;69.60
67141;DHT22;54058;52.010;5.546;2023-03-14T13:53:55;9.60;68.90
67141;DHT22;54058;52.010;5.546;2023-03-14T13:56:26;9.60;66.70
67141;DHT22;54058;52.010;5.546;2023-03-14T13:58:52;9.50;69.40
67141;DHT22;54058;52.010;5.546;2023-03-14T14:01:32;9.50;69.10
67141;DHT22;54058;52.010;5.546;2023-03-14T14:04:06;9.40;64.60
67141;DHT22;54058;52.010;5.546;2023-03-14T14:06:38;9.30;67.40
67141;DHT22;54058;52.010;5.546;2023-03-14T14:09:23;9.40;66.10
67141;DHT22;54058;52.010;5.546;2023-03-14T14:11:51;9.50;61.20
67141;DHT22;54058;52.010;5.546;2023-03-14T14:14:30;9.30;69.10
67141;DHT22;54058;52.010;5.546;2023-03-14T14:16:58;9.20;66.70
67141;DHT22;54058;52.010;5.546;2023-03-14T14:19:27;9.20;67.80
67141;DHT22;54058;52.010;5.546;2023-03-14T14:21:55;9.20;60.40
67141;DHT22;54058;52.010;5.546;2023-03-14T14:24:23;9.10;68.60
67141;DHT22;54058;52.010;5.546;2023-03-14T14:26:55;9.10;68.70
67141;DHT22;54058;52.010;5.546;2023-03-14T14:29:28;9.10;69.10
67141;DHT22;54058;52.010;5.546;2023-03-14T14:34:56;9.00;65.70
67141;DHT22;54058;52.010;5.546;2023-03-14T14:39:48;8.80;68.50
67141;DHT22;54058;52.010;5.546;2023-03-14T14:42:17;8.70;64.70
67141;DHT22;54058;52.010;5.546;2023-03-14T14:44:44;8.60;67.50
67141;DHT22;54058;52.010;5.546;2023-03-14T14:47:14;8.50;68.70
67141;DHT22;54058;52.010;5.546;2023-03-14T14:49:40;8.60;66.20
67141;DHT22;54058;52.010;5.546;2023-03-14T14:54:47;8.50;67.70
67141;DHT22;54058;52.010;5.546;2023-03-14T14:57:24;8.60;68.80
67141;DHT22;54058;52.010;5.546;2023-03-14T14:59:51;8.70;68.30
67141;DHT22;54058;52.010;5.546;2023-03-14T15:02:58;8.70;68.60
67141;DHT22;54058;52.010;5.546;2023-03-14T15:05:26;8.60;66.60
67141;DHT22;54058;52.010;5.546;2023-03-14T15:07:52;8.60;67.60
67141;DHT22;54058;52.010;5.546;2023-03-14T15:10:21;8.60;68.40
67141;DHT22;54058;52.010;5.546;2023-03-14T15:12:47;8.70;69.40
67141;DHT22;54058;52.010;5.546;2023-03-14T15:15:13;8.70;68.80
67141;DHT22;54058;52.010;5.546;2023-03-14T15:17:39;8.60;67.50
67141;DHT22;54058;52.010;5.546;2023-03-14T15:20:09;8.60;66.90
67141;DHT22;54058;52.010;5.546;2023-03-14T15:22:35;8.60;67.90
67141;DHT22;54058;52.010;5.546;2023-03-14T15:25:01;8.60;67.30
67141;DHT22;54058;52.010;5.546;2023-03-14T15:27:28;8.60;67.20
67141;DHT22;54058;52.010;5.546;2023-03-14T15:29:56;8.60;67.90
67141;DHT22;54058;52.010;5.546;2023-03-14T15:32:21;8.60;67.30
67141;DHT22;54058;52.010;5.546;2023-03-14T15:34:47;8.60;67.30
67141;DHT22;54058;52.010;5.546;2023-03-14T15:37:14;8.60;69.00
67141;DHT22;54058;52.010;5.546;2023-03-14T15:39:44;8.70;68.80
67141;DHT22;54058;52.010;5.546;2023-03-14T15:42:10;8.70;68.50
67141;DHT22;54058;52.010;5.546;2023-03-14T15:44:36;8.70;68.90
67141;DHT22;54058;52.010;5.546;2023-03-14T15:47:02;8.70;68.80
67141;DHT22;54058;52.010;5.546;2023-03-14T15:49:28;8.70;68.30
67141;DHT22;54058;52.010;5.546;2023-03-14T15:51:53;8.70;68.80
67141;DHT22;54058;52.010;5.546;2023-03-14T15:54:19;8.70;69.50
67141;DHT22;54058;52.010;5.546;2023-03-14T15:56:45;8.80;69.50
67141;DHT22;54058;52.010;5.546;2023-03-14T15:59:10;8.70;68.90
67141;DHT22;54058;52.010;5.546;2023-03-14T16:01:36;8.70;69.20
67141;DHT22;54058;52.010;5.546;2023-03-14T16:04:02;8.60;68.60
67141;DHT22;54058;52.010;5.546;2023-03-14T16:06:28;8.60;68.20
67141;DHT22;54058;52.010;5.546;2023-03-14T16:08:56;8.50;68.90
67141;DHT22;54058;52.010;5.546;2023-03-14T16:11:21;8.60;69.70
67141;DHT22;54058;52.010;5.546;2023-03-14T16:13:47;8.60;69.00
67141;DHT22;54058;52.010;5.546;2023-03-14T16:16:14;8.40;68.10
67141;DHT22;54058;52.010;5.546;2023-03-14T16:18:40;8.40;67.60
67141;DHT22;54058;52.010;5.546;2023-03-14T16:21:10;8.30;68.50
67141;DHT22;54058;52.010;5.546;2023-03-14T16:23:36;8.30;67.80
67141;DHT22;54058;52.010;5.546;2023-03-14T16:26:07;8.20;68.20
67141;DHT22;54058;52.010;5.546;2023-03-14T16:28:33;8.30;69.10
67141;DHT22;54058;52.010;5.546;2023-03-14T16:31:00;8.20;67.30
67141;DHT22;54058;52.010;5.546;2023-03-14T16:33:27;8.20;68.60
67141;DHT22;54058;52.010;5.546;2023-03-14T16:36:00;8.10;68.60
67141;DHT22;54058;52.010;5.546;2023-03-14T16:38:26;8.10;68.60
67141;DHT22;54058;52.010;5.546;2023-03-14T16:40:57;8.10;69.20
67141;DHT22;54058;52.010;5.546;2023-03-14T16:43:23;8.20;69.00
67141;DHT22;54058;52.010;5.546;2023-03-14T16:45:49;8.20;69.00
67141;DHT22;54058;52.010;5.546;2023-03-14T16:48:15;8.10;69.70
67141;DHT22;54058;52.010;5.546;2023-03-14T16:50:41;8.10;69.80
67141;DHT22;54058;52.010;5.546;2023-03-14T16:53:06;8.20;70.30
67141;DHT22;54058;52.010;5.546;2023-03-14T16:55:32;8.10;70.30
67141;DHT22;54058;52.010;5.546;2023-03-14T16:57:57;8.20;69.90
67141;DHT22;54058;52.010;5.546;2023-03-14T17:00:23;8.20;69.50